Time;durP1;ratioP1;P1;durP2;ratioP2;P2;SDS_P1;SDS_P2;PMS_P1;PMS_P2;Temp;Humidity;BMP_temperature;BMP_pressure;BME280_temperature;BME280_humidity;BME280_pressure;Samples;Min_cycle;Max_cycle;Signal;HPM_P1;HPM_P2
2024/01/08 00:02:16;;;;;;;18.25;6.38;;;;;;;-2.75;100.00;102773.69;7346713;19;20203;-45
2024/01/08 00:04:45;;;;;;;23.38;7.40;;;;;;;-2.44;100.00;102754.84;7314263;19;20215;-44
2024/01/08 00:07:15;;;;;;;56.15;16.15;;;;;;;-2.54;100.00;102759.44;7326318;19;20253;-45
2024/01/08 00:09:45;;;;;;;16.05;4.68;;;;;;;-2.56;100.00;102759.28;7344733;19;20197;-46
2024/01/08 00:12:15;;;;;;;10.13;4.10;;;;;;;-2.58;100.00;102771.72;7326972;19;20194;-44
2024/01/08 00:14:44;;;;;;;45.38;15.02;;;;;;;-2.51;100.00;102767.44;7347270;19;20553;-44
2024/01/08 00:17:16;;;;;;;9.88;3.38;;;;;;;-2.54;100.00;102779.66;7327220;19;20194;-46
2024/01/08 00:19:46;;;;;;;6.15;2.95;;;;;;;-2.67;100.00;102782.28;7346036;19;20194;-45
2024/01/08 00:22:16;;;;;;;9.40;3.67;;;;;;;-2.64;100.00;102786.09;7303361;19;20198;-47
2024/01/08 00:24:45;;;;;;;12.15;4.72;;;;;;;-2.57;100.00;102782.72;7337242;19;20257;-45
2024/01/08 00:27:15;;;;;;;11.23;3.92;;;;;;;-2.49;100.00;102781.16;7326258;19;20190;-46
2024/01/08 00:29:45;;;;;;;10.80;3.88;;;;;;;-2.53;100.00;102784.94;7345873;19;20670;-45
2024/01/08 00:32:17;;;;;;;15.35;5.90;;;;;;;-2.55;100.00;102777.84;7315753;19;20261;-48
2024/01/08 00:34:46;;;;;;;43.92;14.23;;;;;;;-2.53;100.00;102769.75;7343279;19;20568;-45
2024/01/08 00:37:16;;;;;;;22.80;8.00;;;;;;;-2.49;100.00;102777.03;7327167;19;20205;-45
2024/01/08 00:39:46;;;;;;;6.43;2.90;;;;;;;-2.42;100.00;102777.81;7346504;19;20220;-47
2024/01/08 00:42:15;;;;;;;10.32;3.35;;;;;;;-2.50;100.00;102774.31;7327016;19;20203;-45
2024/01/08 00:44:45;;;;;;;10.40;3.63;;;;;;;-2.69;100.00;102779.53;7346172;19;20206;-45
2024/01/08 00:47:17;;;;;;;53.30;15.40;;;;;;;-2.51;100.00;102762.38;7325599;19;20782;-46
2024/01/08 00:49:47;;;;;;;25.15;8.02;;;;;;;-2.62;100.00;102769.50;7342486;19;20204;-45
2024/01/08 00:52:16;;;;;;;20.83;7.68;;;;;;;-2.54;100.00;102762.91;7331516;19;20289;-47
2024/01/08 00:54:46;;;;;;;8.07;3.80;;;;;;;-2.44;100.00;102752.31;7346580;19;20202;-46
2024/01/08 00:57:16;;;;;;;6.63;2.75;;;;;;;-2.60;100.00;102760.47;7341745;19;20198;-43
2024/01/08 00:59:45;;;;;;;9.82;3.63;;;;;;;-2.61;100.00;102765.34;7346671;19;20198;-46
2024/01/08 01:02:17;;;;;;;4.70;2.35;;;;;;;-2.56;100.00;102766.84;7338085;19;20194;-47
2024/01/08 01:04:47;;;;;;;8.90;4.25;;;;;;;-2.58;100.00;102766.66;7290178;19;20214;-48
2024/01/08 01:07:17;;;;;;;8.60;3.05;;;;;;;-2.55;100.00;102760.16;7345217;19;20202;-50
2024/01/08 01:09:46;;;;;;;8.13;3.55;;;;;;;-2.59;100.00;102771.50;7329701;19;20194;-47
2024/01/08 01:12:16;;;;;;;46.28;13.93;;;;;;;-2.44;100.00;102772.56;7345929;19;20198;-47
2024/01/08 01:14:46;;;;;;;5.78;2.80;;;;;;;-2.52;100.00;102768.16;7347685;19;20202;-46
2024/01/08 01:17:18;;;;;;;11.00;4.07;;;;;;;-2.53;100.00;102772.28;7298595;19;20194;-48
2024/01/08 01:19:48;;;;;;;10.75;4.35;;;;;;;-2.49;100.00;102766.00;7352043;19;20190;-47
2024/01/08 01:22:18;;;;;;;8.30;2.90;;;;;;;-2.54;100.00;102767.03;7328862;19;20202;-45
2024/01/08 01:24:47;;;;;;;5.55;2.92;;;;;;;-2.48;100.00;102772.88;7330626;19;20208;-47
2024/01/08 01:27:17;;;;;;;11.13;3.30;;;;;;;-2.43;100.00;102773.47;7352122;19;20778;-46
2024/01/08 01:29:46;;;;;;;6.60;2.90;;;;;;;-2.38;100.00;102765.75;7368020;19;20198;-42
2024/01/08 01:32:19;;;;;;;8.32;3.88;;;;;;;-2.47;100.00;102775.59;7398309;19;20569;-41
2024/01/08 01:34:49;;;;;;;37.20;12.13;;;;;;;-2.28;100.00;102760.22;7394133;19;20134;-38
2024/01/08 01:37:19;;;;;;;8.65;3.40;;;;;;;-2.41;100.00;102754.34;7400897;19;20841;-41
2024/01/08 01:39:48;;;;;;;28.05;9.95;;;;;;;-2.58;100.00;102761.59;7397592;19;20195;-45
2024/01/08 01:42:18;;;;;;;23.58;7.53;;;;;;;-2.64;100.00;102749.78;7401564;19;20171;-41
2024/01/08 01:44:48;;;;;;;12.65;5.15;;;;;;;-2.68;100.00;102753.53;7399741;19;20152;-41
2024/01/08 01:47:20;;;;;;;36.17;10.65;;;;;;;-2.81;100.00;102751.09;7397943;19;20150;-42
2024/01/08 01:49:50;;;;;;;10.60;3.00;;;;;;;-2.70;100.00;102752.47;7397102;19;20182;-40
2024/01/08 01:52:20;;;;;;;14.52;6.07;;;;;;;-2.61;100.00;102743.50;7397971;19;20171;-43
2024/01/08 01:54:51;;;;;;;6.57;3.03;;;;;;;-2.73;100.00;102745.38;7396563;19;20143;-44
2024/01/08 01:57:21;;;;;;;14.25;5.35;;;;;;;-2.77;100.00;102737.22;7397760;19;20158;-41
2024/01/08 01:59:51;;;;;;;27.23;8.38;;;;;;;-2.56;100.00;102733.06;7395960;19;20175;-38
2024/01/08 02:02:27;;;;;;;37.78;13.18;;;;;;;-2.67;100.00;102727.56;7399318;19;20146;-37
2024/01/08 02:04:57;;;;;;;50.35;16.42;;;;;;;-2.72;100.00;102723.56;7395415;19;20659;-44
2024/01/08 02:07:27;;;;;;;13.07;4.57;;;;;;;-2.63;100.00;102717.13;7399078;19;20153;-45
2024/01/08 02:09:57;;;;;;;10.88;2.78;;;;;;;-2.64;100.00;102712.78;7396263;19;20670;-38
2024/01/08 02:12:27;;;;;;;6.85;2.78;;;;;;;-2.62;100.00;102718.94;7395074;19;20691;-43
2024/01/08 02:14:57;;;;;;;12.70;4.95;;;;;;;-2.58;100.00;102711.03;7397931;19;20153;-39
2024/01/08 02:17:29;;;;;;;11.80;3.92;;;;;;;-2.56;100.00;102710.31;7399169;19;20547;-43
2024/01/08 02:19:59;;;;;;;25.67;8.13;;;;;;;-2.52;100.00;102710.91;7397756;19;20181;-43
2024/01/08 02:22:29;;;;;;;10.10;3.75;;;;;;;-2.65;100.00;102716.03;7398137;19;20139;-45
2024/01/08 02:25:01;;;;;;;14.40;5.22;;;;;;;-2.67;100.00;102719.97;7397492;19;20514;-42
2024/01/08 02:27:31;;;;;;;10.88;3.65;;;;;;;-2.42;100.00;102720.53;7395991;19;20178;-39
2024/01/08 02:30:00;;;;;;;25.42;8.07;;;;;;;-2.27;100.00;102718.16;7396475;19;20178;-40
2024/01/08 02:32:30;;;;;;;58.03;16.95;;;;;;;-2.40;100.00;102736.84;7398223;19;20402;-39
2024/01/08 02:35:00;;;;;;;31.90;10.93;;;;;;;-2.48;100.00;102732.41;7397607;19;20149;-43
2024/01/08 02:37:30;;;;;;;10.77;3.70;;;;;;;-2.61;100.00;102725.81;7397928;19;20150;-39
2024/01/08 02:40:02;;;;;;;60.03;16.38;;;;;;;-2.58;100.00;102731.25;7397822;19;20173;-37
2024/01/08 02:42:32;;;;;;;22.90;5.88;;;;;;;-2.45;100.00;102725.22;7398164;19;20530;-45
2024/01/08 02:45:01;;;;;;;45.47;12.18;;;;;;;-2.35;100.00;102729.81;7398958;19;20512;-39
2024/01/08 02:47:33;;;;;;;22.27;7.82;;;;;;;-2.55;100.00;102735.81;7396999;19;20146;-39
2024/01/08 02:50:02;;;;;;;6.13;2.90;;;;;;;-2.33;100.00;102734.34;7396424;19;20201;-39
2024/01/08 02:52:32;;;;;;;7.13;2.60;;;;;;;-2.47;100.00;102739.28;7397385;19;20163;-40
2024/01/08 02:55:05;;;;;;;10.55;3.15;;;;;;;-2.50;100.00;102733.84;7396120;19;20149;-44
2024/01/08 02:57:34;;;;;;;4.03;2.15;;;;;;;-2.36;100.00;102749.13;7396973;19;20151;-38
2024/01/08 03:00:06;;;;;;;38.10;11.38;;;;;;;-2.36;100.00;102744.06;7395788;19;20245;-40
2024/01/08 03:02:36;;;;;;;7.40;2.33;;;;;;;-2.38;100.00;102750.56;7396876;19;20648;-43
2024/01/08 03:05:06;;;;;;;20.05;6.45;;;;;;;-2.30;100.00;102746.47;7395863;19;20174;-40
2024/01/08 03:07:36;;;;;;;6.60;4.03;;;;;;;-2.43;100.00;102748.19;7397012;19;20150;-44
2024/01/08 03:10:09;;;;;;;13.15;3.83;;;;;;;-2.50;100.00;102744.88;7393419;19;20965;-41
2024/01/08 03:12:39;;;;;;;24.50;8.07;;;;;;;-2.28;100.00;102751.72;7397278;19;20208;-38
2024/01/08 03:15:09;;;;;;;27.77;8.20;;;;;;;-2.13;100.00;102751.13;7396174;19;20157;-40
2024/01/08 03:17:39;;;;;;;11.57;3.72;;;;;;;-2.39;100.00;102760.47;7397026;19;21272;-40
2024/01/08 03:20:11;;;;;;;8.38;2.80;;;;;;;-2.32;100.00;102766.50;7396330;19;20170;-38
2024/01/08 03:22:41;;;;;;;35.00;11.35;;;;;;;-2.24;100.00;102764.03;7395650;19;20139;-40
2024/01/08 03:25:13;;;;;;;17.42;5.75;;;;;;;-2.37;100.00;102762.50;7396595;19;20139;-39
2024/01/08 03:27:43;;;;;;;9.95;2.67;;;;;;;-2.45;100.00;102764.03;7395788;19;20147;-41
2024/01/08 03:30:15;;;;;;;5.47;2.67;;;;;;;-2.26;100.00;102775.59;7396595;19;20178;-38
2024/01/08 03:32:45;;;;;;;7.35;2.25;;;;;;;-2.27;100.00;102778.84;7394676;19;20142;-46
2024/01/08 03:35:15;;;;;;;8.18;2.53;;;;;;;-2.25;100.00;102775.75;7396046;19;20150;-40
2024/01/08 03:37:44;;;;;;;15.15;5.13;;;;;;;-2.23;100.00;102775.97;7391648;19;20194;-39
2024/01/08 03:40:17;;;;;;;20.48;6.53;;;;;;;-2.23;100.00;102773.44;7395386;19;20171;-38
2024/01/08 03:42:48;;;;;;;4.85;2.30;;;;;;;-2.42;100.00;102768.59;7395139;19;20145;-42
2024/01/08 03:45:18;;;;;;;14.27;4.20;;;;;;;-2.37;100.00;102771.72;7395952;19;20160;-39
2024/01/08 03:47:47;;;;;;;49.63;15.60;;;;;;;-2.15;100.00;102761.75;7395734;19;20166;-38
2024/01/08 03:50:17;;;;;;;36.15;12.68;;;;;;;-1.96;100.00;102762.41;7395522;19;20209;-39
2024/01/08 03:52:47;;;;;;;11.57;4.90;;;;;;;-1.99;100.00;102760.44;7393958;19;20143;-40
2024/01/08 03:55:19;;;;;;;16.48;6.20;;;;;;;-2.04;100.00;102764.00;7395675;19;20142;-40
2024/01/08 03:57:49;;;;;;;12.93;4.05;;;;;;;-1.99;100.00;102764.56;7393673;19;20143;-39
2024/01/08 04:00:19;;;;;;;34.03;9.80;;;;;;;-1.81;100.00;102766.88;7395254;19;20603;-39
2024/01/08 04:02:49;;;;;;;6.80;2.65;;;;;;;-1.82;100.00;102767.59;7396196;19;20154;-37
2024/01/08 04:05:18;;;;;;;9.80;3.78;;;;;;;-1.78;100.00;102773.94;7394920;19;20175;-39
2024/01/08 04:07:48;;;;;;;26.83;8.38;;;;;;;-1.97;100.00;102765.66;7391795;19;20226;-40
2024/01/08 04:10:20;;;;;;;9.18;4.10;;;;;;;-1.78;100.00;102767.22;7394262;19;20175;-42
2024/01/08 04:12:50;;;;;;;17.33;6.13;;;;;;;-1.79;100.00;102770.47;7393929;19;20143;-40
2024/01/08 04:15:20;;;;;;;11.00;4.10;;;;;;;-1.70;100.00;102773.25;7396260;19;20170;-37
2024/01/08 04:17:50;;;;;;;12.20;3.58;;;;;;;-2.05;100.00;102790.03;7392497;19;20139;-37
2024/01/08 04:20:20;;;;;;;9.52;4.00;;;;;;;-2.00;100.00;102793.13;7394004;19;20188;-40
2024/01/08 04:22:51;;;;;;;12.48;4.90;;;;;;;-1.98;100.00;102791.69;7393793;19;20145;-39
2024/01/08 04:25:23;;;;;;;15.27;2.97;;;;;;;-2.23;100.00;102786.09;7395907;19;20157;-38
2024/01/08 04:27:54;;;;;;;18.50;7.82;;;;;;;-2.25;100.00;102787.53;7393277;19;20142;-41
2024/01/08 04:30:23;;;;;;;9.05;2.83;;;;;;;-2.24;100.00;102790.25;7394062;19;20174;-39
2024/01/08 04:32:53;;;;;;;14.73;4.70;;;;;;;-2.29;100.00;102797.94;7392880;19;20150;-42
2024/01/08 04:35:23;;;;;;;6.55;3.15;;;;;;;-2.29;100.00;102795.41;7394295;19;20206;-46
2024/01/08 04:37:52;;;;;;;20.35;5.72;;;;;;;-2.27;100.00;102794.91;7394614;19;20167;-40
2024/01/08 04:40:25;;;;;;;24.48;8.10;;;;;;;-2.15;100.00;102795.56;7394088;19;20182;-39
2024/01/08 04:42:54;;;;;;;6.35;2.83;;;;;;;-2.22;100.00;102801.47;7394689;19;20153;-42
2024/01/08 04:45:24;;;;;;;10.45;2.92;;;;;;;-2.31;100.00;102807.88;7394043;19;20261;-41
2024/01/08 04:47:53;;;;;;;11.93;4.05;;;;;;;-2.36;100.00;102814.88;7393637;19;20153;-44
2024/01/08 04:50:23;;;;;;;8.93;3.20;;;;;;;-2.32;100.00;102812.03;7396834;19;20249;-40
2024/01/08 04:52:53;;;;;;;10.20;3.00;;;;;;;-2.24;100.00;102819.69;7401609;19;20143;-43
2024/01/08 04:55:25;;;;;;;6.63;2.70;;;;;;;-2.19;100.00;102818.66;7399472;19;20663;-38
2024/01/08 04:57:55;;;;;;;24.70;4.07;;;;;;;-2.02;100.00;102822.41;7401294;19;20550;-39
2024/01/08 05:00:24;;;;;;;7.10;2.60;;;;;;;-2.12;100.00;102826.28;7399925;19;20178;-39
2024/01/08 05:02:54;;;;;;;7.55;2.42;;;;;;;-2.17;100.00;102829.84;7398721;19;20135;-40
2024/01/08 05:05:24;;;;;;;6.80;2.85;;;;;;;-2.20;100.00;102830.38;7400211;19;20170;-43
2024/01/08 05:07:54;;;;;;;12.65;4.43;;;;;;;-2.18;100.00;102835.63;7398954;19;20143;-47
2024/01/08 05:10:26;;;;;;;9.50;3.60;;;;;;;-2.09;100.00;102834.28;7398968;19;20174;-40
2024/01/08 05:12:55;;;;;;;10.10;3.50;;;;;;;-2.17;100.00;102847.56;7401432;19;20143;-38
2024/01/08 05:15:25;;;;;;;8.82;2.47;;;;;;;-2.13;100.00;102843.78;7399688;19;20173;-44
2024/01/08 05:17:55;;;;;;;8.10;3.47;;;;;;;-2.04;100.00;102839.91;7400340;19;20639;-41
2024/01/08 05:20:26;;;;;;;36.08;9.95;;;;;;;-1.85;100.00;102849.81;7399429;19;20685;-40
2024/01/08 05:22:55;;;;;;;6.80;2.33;;;;;;;-1.89;100.00;102853.59;7398534;19;20153;-39
2024/01/08 05:25:27;;;;;;;8.80;3.05;;;;;;;-1.93;100.00;102864.03;7398891;19;20211;-39
2024/01/08 05:27:57;;;;;;;15.38;5.20;;;;;;;-2.02;100.00;102862.88;7397379;19;20967;-41
2024/01/08 05:30:27;;;;;;;5.80;2.63;;;;;;;-1.89;100.00;102866.25;7399126;19;20177;-41
2024/01/08 05:32:56;;;;;;;7.82;2.85;;;;;;;-1.94;100.00;102867.28;7401064;19;20146;-39
2024/01/08 05:35:27;;;;;;;9.07;3.05;;;;;;;-1.95;100.00;102863.84;7402330;19;20135;-47
2024/01/08 05:37:56;;;;;;;15.15;5.10;;;;;;;-1.85;100.00;102868.44;7397651;19;20145;-42
2024/01/08 05:40:29;;;;;;;7.70;3.30;;;;;;;-1.99;100.00;102873.38;7398822;19;20186;-40
2024/01/08 05:42:59;;;;;;;9.23;2.95;;;;;;;-2.06;100.00;102880.19;7398742;19;20214;-47
2024/01/08 05:45:28;;;;;;;16.42;6.88;;;;;;;-1.93;100.00;102874.16;7401740;19;20156;-41
2024/01/08 05:47:58;;;;;;;16.15;5.28;;;;;;;-1.96;100.00;102894.00;7399603;19;20150;-43
2024/01/08 05:50:28;;;;;;;10.45;2.90;;;;;;;-2.05;100.00;102889.59;7399020;19;20276;-41
2024/01/08 05:53:00;;;;;;;6.75;3.17;;;;;;;-1.92;100.00;102891.16;7398246;19;20482;-39
2024/01/08 05:55:32;;;;;;;5.40;2.03;;;;;;;-1.91;100.00;102895.50;7398628;19;20139;-42
2024/01/08 05:58:02;;;;;;;4.93;2.58;;;;;;;-2.13;100.00;102907.97;7396983;19;20235;-38
2024/01/08 06:00:31;;;;;;;6.07;2.50;;;;;;;-1.98;100.00;102905.56;7397524;19;20529;-47
2024/01/08 06:03:01;;;;;;;7.78;3.05;;;;;;;-1.88;100.00;102912.69;7398332;19;20554;-41
2024/01/08 06:05:30;;;;;;;11.60;4.57;;;;;;;-1.78;100.00;102901.38;7397921;19;20143;-41
2024/01/08 06:08:00;;;;;;;6.63;2.65;;;;;;;-1.91;100.00;102910.69;7398106;19;20146;-41
2024/01/08 06:10:32;;;;;;;5.03;2.20;;;;;;;-1.97;100.00;102917.50;7397805;19;20654;-40
2024/01/08 06:13:02;;;;;;;23.50;7.00;;;;;;;-1.88;100.00;102920.28;7396923;19;20648;-40
2024/01/08 06:15:32;;;;;;;7.60;3.25;;;;;;;-1.96;100.00;102919.31;7397331;19;20213;-40
2024/01/08 06:18:01;;;;;;;7.65;2.85;;;;;;;-1.77;100.00;102937.75;7397287;19;20146;-39
2024/01/08 06:20:32;;;;;;;8.15;3.95;;;;;;;-1.80;100.00;102966.09;7397961;19;20170;-40
2024/01/08 06:23:02;;;;;;;8.48;3.22;;;;;;;-1.77;100.00;102971.56;7393811;19;20149;-39
2024/01/08 06:25:34;;;;;;;12.27;2.38;;;;;;;-1.67;100.00;102990.44;7397075;19;20613;-38
2024/01/08 06:28:04;;;;;;;6.57;2.40;;;;;;;-1.77;100.00;103009.53;7394644;19;20166;-37
2024/01/08 06:30:33;;;;;;;27.13;9.80;;;;;;;-1.73;100.00;103020.97;7390647;19;20178;-39
2024/01/08 06:33:03;;;;;;;12.98;4.60;;;;;;;-1.69;100.00;103034.94;7395057;19;21040;-38
2024/01/08 06:35:33;;;;;;;5.90;2.30;;;;;;;-1.63;100.00;103038.25;7395210;19;20518;-41
2024/01/08 06:38:05;;;;;;;4.70;2.22;;;;;;;-1.68;100.00;103040.19;7394784;19;20135;-46
2024/01/08 06:40:38;;;;;;;19.05;6.63;;;;;;;-1.43;100.00;103047.47;7397020;19;20182;-43
2024/01/08 06:43:07;;;;;;;15.45;5.65;;;;;;;-1.63;100.00;103046.72;7395935;19;20214;-39
2024/01/08 06:45:37;;;;;;;5.00;2.35;;;;;;;-1.66;100.00;103058.09;7395824;19;20146;-39
2024/01/08 06:48:07;;;;;;;5.57;2.85;;;;;;;-1.57;100.00;103058.34;7395653;19;20163;-40
2024/01/08 06:50:37;;;;;;;3.85;2.03;;;;;;;-1.61;100.00;103062.13;7395987;19;20179;-39
2024/01/08 06:53:06;;;;;;;13.57;4.47;;;;;;;-1.63;100.00;103059.38;7395172;19;20143;-40
2024/01/08 06:55:39;;;;;;;11.23;3.40;;;;;;;-1.69;100.00;103070.38;7395882;19;20631;-38
2024/01/08 06:58:09;;;;;;;5.05;1.80;;;;;;;-1.75;100.00;103072.13;7394783;19;20199;-41
2024/01/08 07:00:38;;;;;;;24.77;8.32;;;;;;;-1.61;100.00;103082.38;7397156;19;20218;-40
2024/01/08 07:03:08;;;;;;;6.53;2.50;;;;;;;-1.69;100.00;103083.03;7394730;19;20615;-41
2024/01/08 07:05:37;;;;;;;10.48;2.00;;;;;;;-1.73;100.00;103083.34;7397912;19;20167;-41
2024/01/08 07:08:08;;;;;;;5.10;2.05;;;;;;;-1.78;100.00;103086.16;7395939;19;20198;-45
2024/01/08 07:10:40;;;;;;;8.55;2.80;;;;;;;-1.83;100.00;103089.75;7396693;19;20520;-40
2024/01/08 07:13:10;;;;;;;11.13;4.43;;;;;;;-1.52;100.00;103108.91;7394220;19;20142;-40
2024/01/08 07:15:41;;;;;;;10.75;3.72;;;;;;;-1.34;100.00;103109.41;7395110;19;20168;-40
2024/01/08 07:18:11;;;;;;;34.28;11.77;;;;;;;-1.57;100.00;103109.00;7391583;19;20150;-40
2024/01/08 07:20:42;;;;;;;14.88;4.95;;;;;;;-1.72;100.00;103101.25;7395116;19;20150;-39
2024/01/08 07:23:12;;;;;;;3.78;1.95;;;;;;;-1.52;100.00;103107.97;7351873;19;20205;-39
2024/01/08 07:25:45;;;;;;;6.28;2.65;;;;;;;-1.64;100.00;103107.31;7351022;19;20275;-43
2024/01/08 07:28:16;;;;;;;52.00;14.15;;;;;;;-1.60;100.00;103112.06;7328198;19;20196;-43
2024/01/08 07:30:46;;;;;;;10.65;3.70;;;;;;;-1.70;100.00;103111.59;7350713;19;20231;-40
2024/01/08 07:33:15;;;;;;;6.10;2.35;;;;;;;-1.62;100.00;103126.16;7329300;19;20198;-42
2024/01/08 07:35:48;;;;;;;15.20;5.85;;;;;;;-1.69;100.00;103133.66;7350909;19;20186;-39
2024/01/08 07:38:20;;;;;;;4.45;2.13;;;;;;;-1.97;100.00;103122.47;7327517;19;20195;-41
2024/01/08 07:40:52;;;;;;;4.68;2.10;;;;;;;-2.05;100.00;103122.38;7349728;19;20202;-43
2024/01/08 07:43:22;;;;;;;8.77;2.05;;;;;;;-2.11;100.00;103136.75;7328753;19;20678;-41
2024/01/08 07:45:51;;;;;;;8.10;3.00;;;;;;;-2.04;100.00;103139.38;7350091;19;20203;-42
2024/01/08 07:48:21;;;;;;;6.90;2.95;;;;;;;-2.08;100.00;103142.25;7327913;19;20202;-47
2024/01/08 07:50:51;;;;;;;3.50;1.60;;;;;;;-1.98;100.00;103158.59;7348688;19;20248;-47
2024/01/08 07:53:21;;;;;;;3.83;1.95;;;;;;;-2.20;100.00;103155.81;7328093;19;20208;-46
2024/01/08 07:55:53;;;;;;;6.60;2.55;;;;;;;-2.29;100.00;103160.56;7349591;19;20214;-45
2024/01/08 07:58:22;;;;;;;4.25;1.92;;;;;;;-2.31;100.00;103174.59;7327722;19;20273;-43
2024/01/08 08:01:04;;;;;;;4.15;1.67;;;;;;;-2.34;100.00;103187.78;7325506;19;20607;-42
2024/01/08 08:03:34;;;;;;;3.75;1.60;;;;;;;-2.36;100.00;103178.16;7348393;19;20186;-43
2024/01/08 08:06:01;;;;;;;6.10;2.05;;;;;;;-2.34;100.00;103186.84;7326768;19;20679;-44
2024/01/08 08:08:31;;;;;;;6.13;1.98;;;;;;;-2.37;100.00;103200.00;7345440;19;20575;-45
2024/01/08 08:11:06;;;;;;;13.95;4.00;;;;;;;-2.24;100.00;103204.16;7327069;19;20703;-47
2024/01/08 08:13:36;;;;;;;6.18;2.30;;;;;;;-2.20;100.00;103211.47;7348955;19;20645;-47
2024/01/08 08:16:06;;;;;;;5.18;2.80;;;;;;;-2.16;100.00;103228.84;7326553;19;20200;-41
2024/01/08 08:18:36;;;;;;;14.23;4.85;;;;;;;-2.14;100.00;103231.59;7347248;19;20202;-38
2024/01/08 08:21:06;;;;;;;12.30;4.18;;;;;;;-2.20;100.00;103217.41;7321568;19;20182;-40
2024/01/08 08:23:36;;;;;;;8.27;2.90;;;;;;;-2.10;100.00;103224.59;7347371;19;20657;-43
2024/01/08 08:26:08;;;;;;;22.65;8.02;;;;;;;-2.05;100.00;103223.59;7325380;19;20194;-43
2024/01/08 08:28:44;;;;;;;4.25;2.20;;;;;;;-1.94;100.00;103222.47;7347287;19;20209;-45
2024/01/08 08:31:14;;;;;;;45.70;12.05;;;;;;;-1.99;100.00;103228.56;7326221;19;20205;-40
2024/01/08 08:33:44;;;;;;;12.32;4.30;;;;;;;-2.10;100.00;103229.66;7347952;19;20198;-40
2024/01/08 08:36:14;;;;;;;5.00;2.30;;;;;;;-2.09;100.00;103226.44;7326792;19;20194;-47
2024/01/08 08:38:46;;;;;;;4.75;2.35;;;;;;;-2.08;100.00;103229.88;7346011;19;20198;-41
2024/01/08 08:41:19;;;;;;;8.32;3.75;;;;;;;-2.07;100.00;103235.16;7325996;19;20569;-42
2024/01/08 08:43:49;;;;;;;26.27;6.78;;;;;;;-2.02;100.00;103244.97;7347331;19;20194;-41
2024/01/08 08:46:19;;;;;;;7.97;2.72;;;;;;;-1.99;100.00;103248.81;7326226;19;20202;-40
2024/01/08 08:48:49;;;;;;;8.10;3.25;;;;;;;-1.94;100.00;103247.78;7346492;19;20223;-43
2024/01/08 08:51:18;;;;;;;12.18;4.50;;;;;;;-1.99;100.00;103260.53;7324056;19;20671;-44
2024/01/08 08:53:48;;;;;;;27.98;8.32;;;;;;;-2.02;100.00;103262.69;7347606;19;20265;-45
2024/01/08 08:56:20;;;;;;;12.82;4.97;;;;;;;-1.92;100.00;103265.72;7326320;19;20213;-46
2024/01/08 08:58:50;;;;;;;17.25;5.85;;;;;;;-1.97;100.00;103271.78;7345974;19;20209;-43
2024/01/08 09:01:19;;;;;;;6.60;2.70;;;;;;;-1.84;100.00;103267.63;7326177;19;20202;-41
2024/01/08 09:03:49;;;;;;;30.65;8.85;;;;;;;-1.75;100.00;103274.63;7345103;19;20301;-44
2024/01/08 09:06:20;;;;;;;4.05;1.83;;;;;;;-1.75;100.00;103274.63;7325992;19;20194;-43
2024/01/08 09:08:50;;;;;;;7.90;2.60;;;;;;;-1.73;100.00;103284.25;7344179;19;20248;-40
2024/01/08 09:11:22;;;;;;;18.65;6.22;;;;;;;-1.65;100.00;103287.78;7326201;19;20682;-40
2024/01/08 09:13:52;;;;;;;6.70;2.38;;;;;;;-1.70;100.00;103283.75;7347063;19;20197;-45
2024/01/08 09:16:23;;;;;;;46.45;12.63;;;;;;;-1.70;100.00;103304.00;7325417;19;20198;-45
2024/01/08 09:18:52;;;;;;;8.70;3.10;;;;;;;-1.64;100.00;103294.69;7345439;19;20198;-43
2024/01/08 09:21:22;;;;;;;7.88;3.00;;;;;;;-1.53;100.00;103293.56;7322210;19;20198;-40
2024/01/08 09:23:52;;;;;;;21.75;6.55;;;;;;;-1.54;100.00;103292.63;7346869;19;20197;-45
2024/01/08 09:26:25;;;;;;;72.97;21.55;;;;;;;-1.39;100.00;103314.00;7324636;19;20222;-41
2024/01/08 09:28:55;;;;;;;36.05;11.20;;;;;;;-1.33;100.00;103301.25;7345878;19;20228;-43
2024/01/08 09:31:25;;;;;;;39.63;13.38;;;;;;;-1.08;100.00;103309.47;7324913;19;20649;-49
2024/01/08 09:33:55;;;;;;;45.15;14.27;;;;;;;-1.15;100.00;103312.88;7346389;19;20561;-47
2024/01/08 09:36:24;;;;;;;13.57;5.07;;;;;;;-1.29;100.00;103303.47;7329407;19;20227;-44
2024/01/08 09:38:54;;;;;;;56.70;16.13;;;;;;;-1.39;100.00;103302.97;7350355;19;20238;-43
2024/01/08 09:41:26;;;;;;;11.40;3.90;;;;;;;-1.30;100.00;103303.25;7331894;19;20202;-41
2024/01/08 09:43:57;;;;;;;47.00;13.20;;;;;;;-1.28;100.00;103307.81;7352389;19;20273;-43
2024/01/08 09:46:29;;;;;;;20.05;5.43;;;;;;;-1.27;100.00;103308.72;7331832;19;20202;-41
2024/01/08 09:48:59;;;;;;;28.08;9.38;;;;;;;-1.11;100.00;103304.03;7338216;19;20206;-40
2024/01/08 09:51:28;;;;;;;31.13;10.05;;;;;;;-0.96;100.00;103316.16;7353787;19;20277;-49
2024/01/08 09:54:01;;;;;;;10.20;3.35;;;;;;;-0.79;100.00;103312.34;7344834;19;20726;-45
2024/01/08 09:56:33;;;;;;;13.20;4.35;;;;;;;-0.82;100.00;103301.84;7352891;19;20715;-41
2024/01/08 09:59:03;;;;;;;19.20;7.20;;;;;;;-0.81;100.00;103293.50;7329570;19;20208;-46
2024/01/08 10:01:32;;;;;;;10.05;3.75;;;;;;;-0.72;100.00;103287.06;7350864;19;20194;-44
2024/01/08 10:04:03;;;;;;;7.47;3.25;;;;;;;-0.62;100.00;103295.88;7330604;19;20194;-42
2024/01/08 10:06:32;;;;;;;8.02;3.40;;;;;;;-0.46;100.00;103312.31;7352340;19;20208;-46
2024/01/08 10:09:04;;;;;;;40.10;12.13;;;;;;;-0.70;100.00;103303.41;7329068;19;20649;-42
2024/01/08 10:11:36;;;;;;;8.52;2.83;;;;;;;-0.86;100.00;103285.28;7352784;19;20617;-42
2024/01/08 10:14:08;;;;;;;7.20;3.47;;;;;;;-0.86;100.00;103305.56;7330335;19;20212;-42
2024/01/08 10:16:38;;;;;;;24.33;8.02;;;;;;;-0.77;100.00;103305.84;7351905;19;20860;-41
2024/01/08 10:19:27;;;;;;;6.65;2.90;;;;;;;-0.78;100.00;103301.50;7330223;19;20233;-46
2024/01/08 10:22:10;;;;;;;13.73;4.80;;;;;;;-0.74;100.00;103306.25;7350518;19;20204;-44
2024/01/08 10:24:41;;;;;;;12.43;4.82;;;;;;;-0.66;100.00;103316.47;7331682;19;20190;-44
2024/01/08 10:27:14;;;;;;;9.13;3.35;;;;;;;-0.70;100.00;103313.56;7330428;19;20201;-44
2024/01/08 10:29:43;;;;;;;12.65;4.07;;;;;;;-0.85;100.00;103301.41;7351602;19;20210;-42
2024/01/08 10:32:13;;;;;;;19.65;6.55;;;;;;;-0.72;100.00;103314.06;7329433;19;20199;-48
2024/01/08 10:34:44;;;;;;;27.65;9.35;;;;;;;-0.78;100.00;103313.28;7351445;19;20219;-44
2024/01/08 10:37:14;;;;;;;39.80;12.15;;;;;;;-0.79;100.00;103316.50;7327770;19;20190;-43
2024/01/08 10:39:45;;;;;;;7.53;3.08;;;;;;;-0.64;100.00;103313.41;7348699;19;20278;-48
2024/01/08 10:42:22;;;;;;;13.63;4.45;;;;;;;-0.62;100.00;103317.06;7330169;19;20633;-42
2024/01/08 10:44:52;;;;;;;28.92;8.88;;;;;;;-0.69;100.00;103319.53;7351218;19;20186;-44
2024/01/08 10:47:26;;;;;;;21.15;5.35;;;;;;;-0.55;100.00;103308.63;7327748;19;20725;-44
2024/01/08 10:49:59;;;;;;;14.85;4.95;;;;;;;-0.48;100.00;103302.69;7345835;19;20198;-42
2024/01/08 10:52:31;;;;;;;17.42;6.18;;;;;;;-0.41;100.00;103315.47;7350783;19;20205;-48
2024/01/08 10:55:05;;;;;;;91.30;25.75;;;;;;;-0.50;100.00;103314.28;7329232;19;20215;-39
2024/01/08 10:57:46;;;;;;;3.55;1.75;;;;;;;-0.52;100.00;103315.72;7350959;19;20198;-42
2024/01/08 11:00:16;;;;;;;37.92;13.35;;;;;;;-0.39;100.00;103326.69;7328895;19;20269;-43
2024/01/08 11:02:46;;;;;;;28.17;9.15;;;;;;;-0.56;100.00;103297.53;7350955;19;20194;-42
2024/01/08 11:05:19;;;;;;;27.50;7.85;;;;;;;-0.47;100.00;103292.75;7329319;19;20190;-39
2024/01/08 11:07:48;;;;;;;22.20;6.72;;;;;;;-0.29;100.00;103295.78;7350343;19;20253;-41
2024/01/08 11:10:18;;;;;;;16.37;6.43;;;;;;;-0.24;100.00;103289.69;7328823;19;20241;-41
2024/01/08 11:12:57;;;;;;;5.10;2.40;;;;;;;-0.41;100.00;103272.34;7350484;19;20485;-45
2024/01/08 11:15:27;;;;;;;73.70;22.03;;;;;;;-0.61;100.00;103278.28;7329488;19;20415;-43
2024/01/08 11:17:59;;;;;;;10.82;2.65;;;;;;;-0.54;100.00;103285.06;7349525;19;20461;-41
2024/01/08 11:20:42;;;;;;;31.63;12.27;;;;;;;-0.34;100.00;103289.22;7328394;19;20210;-40
2024/01/08 11:23:34;;;;;;;20.60;7.03;;;;;;;-0.23;100.00;103273.72;7327049;19;20198;-42
2024/01/08 11:26:05;;;;;;;52.80;15.07;;;;;;;-0.06;100.00;103272.41;7328021;19;20582;-41
2024/01/08 11:28:39;;;;;;;25.70;8.87;;;;;;;-0.06;100.00;103272.41;7348435;19;20466;-45